Time;durP1;ratioP1;P1;durP2;ratioP2;P2;SDS_P1;SDS_P2;PMS_P1;PMS_P2;Temp;Humidity;BMP_temperature;BMP_pressure;BME280_temperature;BME280_humidity;BME280_pressure;Samples;Min_cycle;Max_cycle;Signal;HPM_P1;HPM_P2
2024/01/24 00:02:11;;;;;;;2.20;0.20;;;;;;;;;;5006255;28;20281;-58
2024/01/24 00:04:37;;;;;;;1.30;0.30;;;5.80;99.90;;;;;;5004358;28;20658;-58
2024/01/24 00:07:05;;;;;;;1.07;0.10;;;5.80;99.90;;;;;;5003323;28;20672;-58
2024/01/24 00:09:33;;;;;;;0.47;0.10;;;5.90;99.90;;;;;;5013663;28;20202;-59
2024/01/24 00:12:01;;;;;;;1.53;0.20;;;;;;;;;;5017169;28;20203;-59
2024/01/24 00:14:28;;;;;;;2.83;0.13;;;;;;;;;;5014740;28;20206;-59
2024/01/24 00:16:55;;;;;;;0.30;0.10;;;;;;;;;;5025463;28;20226;-58
2024/01/24 00:19:22;;;;;;;0.87;0.30;;;;;;;;;;5020582;28;20203;-58
2024/01/24 00:21:50;;;;;;;0.53;0.10;;;;;;;;;;5026811;28;20221;-60
2024/01/24 00:24:17;;;;;;;0.93;0.50;;;;;;;;;;5015181;28;20426;-58
2024/01/24 00:26:45;;;;;;;1.57;0.20;;;;;;;;;;5013592;28;20229;-59
2024/01/24 00:29:13;;;;;;;0.77;0.13;;;;;;;;;;5021044;28;20210;-58
2024/01/24 00:31:40;;;;;;;0.20;0.20;;;;;;;;;;5026577;28;20276;-59
2024/01/24 00:34:07;;;;;;;1.07;0.20;;;;;;;;;;4999810;28;20636;-58
2024/01/24 00:36:35;;;;;;;1.50;0.30;;;;;;;;;;4994052;28;20221;-58
2024/01/24 00:39:02;;;;;;;0.20;0.17;;;;;;;;;;5009179;28;20211;-59
2024/01/24 00:41:29;;;;;;;0.53;0.17;;;;;;;;;;5020249;28;20231;-59
2024/01/24 00:43:58;;;;;;;1.03;0.10;;;;;;;;;;5033234;28;20264;-59
2024/01/24 00:46:25;;;;;;;0.23;0.20;;;6.20;99.90;;;;;;5033278;28;20296;-58
2024/01/24 00:48:52;;;;;;;0.23;0.10;;;;;;;;;;5025238;28;20600;-59
2024/01/24 00:51:20;;;;;;;1.40;0.10;;;;;;;;;;5024240;28;20202;-58
2024/01/24 00:53:52;;;;;;;0.47;0.20;;;;;;;;;;5033598;28;20206;-58
2024/01/24 00:56:19;;;;;;;0.40;0.13;;;;;;;;;;4997739;28;20949;-58
2024/01/24 00:58:46;;;;;;;1.13;0.20;;;6.30;99.90;;;;;;5011641;28;20262;-58
2024/01/24 01:01:15;;;;;;;0.30;0.10;;;;;;;;;;5023559;28;20218;-59
2024/01/24 01:03:43;;;;;;;2.53;0.20;;;;;;;;;;5005706;28;20718;-58
2024/01/24 01:06:10;;;;;;;0.10;0.10;;;;;;;;;;4994228;28;20206;-58
2024/01/24 01:08:37;;;;;;;3.10;0.30;;;;;;;;;;5008622;28;20805;-58
2024/01/24 01:11:05;;;;;;;0.30;0.13;;;;;;;;;;5017946;28;20247;-58
2024/01/24 01:13:33;;;;;;;0.20;0.20;;;;;;;;;;4995473;28;20265;-59
2024/01/24 01:16:00;;;;;;;0.23;0.23;;;;;;;;;;5006284;28;20204;-59
2024/01/24 01:18:29;;;;;;;0.20;0.20;;;;;;;;;;5009634;28;20223;-58
2024/01/24 01:20:56;;;;;;;0.70;0.20;;;;;;;;;;5024049;28;20221;-58
2024/01/24 01:23:23;;;;;;;0.37;0.20;;;;;;;;;;5032723;28;20266;-59
2024/01/24 01:25:51;;;;;;;0.30;0.23;;;;;;;;;;5033252;28;20217;-58
2024/01/24 01:28:18;;;;;;;0.10;0.10;;;;;;;;;;5023893;28;20229;-59
2024/01/24 01:30:45;;;;;;;0.40;0.30;;;;;;;;;;5035411;28;20196;-59
2024/01/24 01:33:12;;;;;;;0.30;0.10;;;6.60;99.90;;;;;;5013062;28;20211;-58
2024/01/24 01:35:41;;;;;;;0.17;0.17;;;6.70;99.90;;;;;;4996749;28;20727;-59
2024/01/24 01:38:07;;;;;;;0.80;0.10;;;;;;;;;;5010595;28;20228;-59
2024/01/24 01:40:34;;;;;;;0.60;0.20;;;;;;;;;;5024974;28;20222;-58
2024/01/24 01:43:01;;;;;;;0.57;0.20;;;;;;;;;;5031162;28;20676;-58
2024/01/24 01:45:29;;;;;;;0.23;0.17;;;;;;;;;;5020860;28;20204;-59
2024/01/24 01:47:57;;;;;;;0.63;0.13;;;;;;;;;;5027548;28;20589;-59
2024/01/24 01:50:24;;;;;;;0.50;0.20;;;;;;;;;;5032160;28;20208;-58
2024/01/24 01:52:53;;;;;;;1.50;0.20;;;;;;;;;;5029337;28;20218;-58
2024/01/24 01:55:20;;;;;;;0.10;0.10;;;;;;;;;;5020858;28;20266;-58
2024/01/24 01:57:48;;;;;;;1.90;0.47;;;6.70;99.90;;;;;;5025779;28;20227;-59
2024/01/24 02:00:20;;;;;;;1.50;0.20;;;;;;;;;;5012109;28;20251;-59
2024/01/24 02:02:48;;;;;;;0.43;0.20;;;;;;;;;;5011379;28;20207;-59
2024/01/24 02:05:16;;;;;;;0.10;0.10;;;6.70;99.90;;;;;;5018844;28;20207;-59
2024/01/24 02:07:44;;;;;;;0.60;0.10;;;6.60;99.90;;;;;;5025447;28;20230;-59
2024/01/24 02:10:13;;;;;;;0.93;0.10;;;6.60;99.90;;;;;;5032099;28;20298;-58
2024/01/24 02:12:40;;;;;;;1.20;0.20;;;6.70;99.90;;;;;;5027634;28;20672;-59
2024/01/24 02:15:08;;;;;;;0.40;0.10;;;6.70;99.90;;;;;;5014581;28;20215;-59
2024/01/24 02:17:35;;;;;;;0.20;0.10;;;6.80;99.90;;;;;;5017809;28;20219;-59
2024/01/24 02:20:03;;;;;;;0.37;0.10;;;6.80;99.90;;;;;;5012319;28;20669;-59
2024/01/24 02:22:30;;;;;;;0.97;0.10;;;6.80;99.90;;;;;;5010686;28;20244;-59
2024/01/24 02:24:59;;;;;;;0.33;0.20;;;6.80;99.90;;;;;;5018756;28;20266;-59
2024/01/24 02:27:26;;;;;;;0.10;0.10;;;;;;;;;;5021573;28;20616;-59
2024/01/24 02:29:57;;;;;;;0.60;0.20;;;;;;;;;;5016985;28;20242;-59
2024/01/24 02:32:24;;;;;;;0.83;0.10;;;6.80;99.90;;;;;;5010799;28;20284;-59
2024/01/24 02:34:51;;;;;;;0.30;0.20;;;6.60;99.90;;;;;;5005819;28;20256;-59
2024/01/24 02:37:19;;;;;;;0.20;0.20;;;6.50;99.90;;;;;;5020220;28;20757;-59
2024/01/24 02:39:47;;;;;;;0.37;0.30;;;6.60;99.90;;;;;;5032002;28;20202;-59
2024/01/24 02:42:19;;;;;;;0.63;0.63;;;6.60;99.90;;;;;;5031789;28;20270;-59
2024/01/24 02:44:46;;;;;;;0.87;0.20;;;6.50;99.90;;;;;;5027704;28;20196;-59
2024/01/24 02:47:13;;;;;;;0.10;0.10;;;6.50;99.90;;;;;;5023110;28;20250;-59
2024/01/24 02:49:40;;;;;;;0.57;0.10;;;6.50;99.90;;;;;;5012291;28;20215;-59
2024/01/24 02:52:07;;;;;;;0.27;0.20;;;6.60;99.90;;;;;;5011537;28;20205;-59
2024/01/24 02:54:36;;;;;;;0.17;0.17;;;6.70;99.90;;;;;;5014348;28;20207;-59
2024/01/24 02:57:04;;;;;;;0.87;0.20;;;6.70;99.90;;;;;;5023304;28;20228;-59
2024/01/24 02:59:33;;;;;;;1.40;0.10;;;6.60;99.90;;;;;;5031659;28;20751;-59
2024/01/24 03:02:00;;;;;;;0.50;0.27;;;6.60;99.90;;;;;;5008947;28;20709;-59
2024/01/24 03:04:27;;;;;;;0.23;0.17;;;6.50;99.90;;;;;;4998048;28;20205;-59
2024/01/24 03:06:55;;;;;;;0.40;0.20;;;6.60;99.90;;;;;;5023235;28;20651;-59
2024/01/24 03:09:22;;;;;;;0.47;0.30;;;6.60;99.90;;;;;;5031815;28;20210;-59
2024/01/24 03:11:49;;;;;;;0.10;0.10;;;6.50;99.90;;;;;;5030908;28;20203;-59
2024/01/24 03:14:16;;;;;;;0.97;0.10;;;6.60;99.90;;;;;;5027191;28;20209;-59
2024/01/24 03:16:44;;;;;;;0.10;0.10;;;6.50;99.90;;;;;;5014008;28;20219;-59
2024/01/24 03:19:11;;;;;;;0.23;0.20;;;6.50;99.90;;;;;;5028812;28;20267;-59
2024/01/24 03:21:38;;;;;;;0.20;0.20;;;6.40;99.90;;;;;;5028653;28;20699;-58
2024/01/24 03:24:05;;;;;;;1.97;0.30;;;6.50;99.90;;;;;;5018741;28;20266;-59
2024/01/24 03:26:32;;;;;;;1.47;0.20;;;6.40;99.90;;;;;;5014936;28;20196;-59
2024/01/24 03:28:59;;;;;;;0.43;0.20;;;6.40;99.90;;;;;;5015674;28;20216;-59
2024/01/24 03:31:26;;;;;;;1.47;0.40;;;6.40;99.90;;;;;;5016208;28;20199;-58
2024/01/24 03:33:55;;;;;;;1.13;0.37;;;6.30;99.90;;;;;;5035363;28;20212;-59
2024/01/24 03:36:22;;;;;;;0.60;0.20;;;6.60;99.90;;;;;;5017924;28;20276;-59
2024/01/24 03:38:49;;;;;;;0.37;0.30;;;6.40;99.90;;;;;;5029291;28;20208;-58
2024/01/24 03:41:16;;;;;;;2.67;0.30;;;6.50;99.90;;;;;;5034891;28;20232;-59
2024/01/24 03:43:43;;;;;;;0.97;0.40;;;6.50;99.90;;;;;;5035204;28;20215;-59
2024/01/24 03:46:10;;;;;;;0.30;0.30;;;6.40;99.90;;;;;;5016718;28;20208;-59
2024/01/24 03:48:37;;;;;;;2.10;0.63;;;6.40;99.90;;;;;;5008620;28;20709;-59
2024/01/24 03:51:08;;;;;;;0.63;0.60;;;6.30;99.90;;;;;;4994930;28;20244;-59
2024/01/24 03:53:35;;;;;;;1.03;0.40;;;6.30;99.90;;;;;;4995596;28;20248;-59
2024/01/24 03:56:02;;;;;;;0.90;0.87;;;6.20;99.90;;;;;;5013840;28;20200;-59
2024/01/24 03:58:29;;;;;;;1.90;0.30;;;6.30;99.90;;;;;;5026659;28;20222;-59
2024/01/24 04:00:56;;;;;;;2.10;0.70;;;6.30;99.90;;;;;;5034031;28;20198;-59
2024/01/24 04:03:23;;;;;;;0.40;0.40;;;6.20;99.90;;;;;;5034512;28;20204;-59
2024/01/24 04:05:50;;;;;;;0.30;0.23;;;6.20;99.90;;;;;;5010083;28;20200;-59
2024/01/24 04:08:19;;;;;;;1.90;0.50;;;6.20;99.90;;;;;;5002886;28;20241;-59
2024/01/24 04:10:46;;;;;;;0.73;0.30;;;6.20;99.90;;;;;;5000857;28;20209;-59
2024/01/24 04:13:13;;;;;;;1.17;0.40;;;6.20;99.90;;;;;;5022167;28;20228;-59
2024/01/24 04:15:40;;;;;;;1.97;0.40;;;6.30;99.90;;;;;;5010878;28;20255;-59
2024/01/24 04:18:07;;;;;;;1.33;0.60;;;6.20;99.90;;;;;;5025972;28;20712;-59
2024/01/24 04:20:34;;;;;;;0.67;0.43;;;6.10;99.90;;;;;;5027776;28;20258;-59
2024/01/24 04:23:01;;;;;;;1.93;0.30;;;6.20;99.90;;;;;;5012001;28;20581;-59
2024/01/24 04:25:30;;;;;;;2.47;0.53;;;6.20;99.90;;;;;;5014904;28;20213;-59
2024/01/24 04:27:57;;;;;;;4.43;0.37;;;6.40;99.90;;;;;;5009570;28;20232;-58
2024/01/24 04:30:24;;;;;;;1.13;0.33;;;6.20;99.90;;;;;;5014867;28;20676;-59
2024/01/24 04:32:51;;;;;;;0.43;0.23;;;6.10;99.90;;;;;;5027526;28;20246;-59
2024/01/24 04:35:19;;;;;;;0.93;0.30;;;6.20;99.90;;;;;;5034137;28;20207;-59
2024/01/24 04:37:46;;;;;;;3.13;0.47;;;6.30;99.90;;;;;;5019445;28;20225;-59
2024/01/24 04:40:14;;;;;;;0.27;0.13;;;6.20;99.90;;;;;;5014269;28;20264;-59
2024/01/24 04:42:42;;;;;;;1.70;0.40;;;6.30;99.90;;;;;;5024909;28;20223;-59
2024/01/24 04:45:10;;;;;;;2.73;0.40;;;6.30;99.90;;;;;;5033972;28;20672;-59
2024/01/24 04:47:42;;;;;;;0.87;0.30;;;6.30;99.90;;;;;;5033839;28;20279;-59
2024/01/24 04:50:10;;;;;;;0.23;0.23;;;6.40;99.90;;;;;;5029192;28;20615;-59
2024/01/24 04:52:37;;;;;;;0.77;0.10;;;;;;;;;;5014460;28;20288;-59
2024/01/24 04:55:05;;;;;;;1.13;0.30;;;;;;;;;;5024159;28;20204;-59
2024/01/24 04:57:32;;;;;;;1.37;0.20;;;;;;;;;;5014081;28;20635;-58
2024/01/24 05:00:01;;;;;;;0.20;0.20;;;;;;;;;;5014006;28;20205;-59
2024/01/24 05:02:28;;;;;;;0.20;0.20;;;;;;;;;;5008980;28;20646;-59
2024/01/24 05:04:55;;;;;;;3.00;0.57;;;;;;;;;;5025395;28;20237;-59
2024/01/24 05:07:22;;;;;;;1.13;0.40;;;;;;;;;;5033549;28;20232;-59
2024/01/24 05:09:50;;;;;;;0.83;0.20;;;;;;;;;;5025361;28;20248;-59
2024/01/24 05:12:19;;;;;;;0.53;0.20;;;;;;;;;;4995789;28;20228;-59
2024/01/24 05:14:46;;;;;;;2.27;0.33;;;;;;;;;;5007587;28;20208;-59
2024/01/24 05:17:14;;;;;;;0.30;0.30;;;;;;;;;;5009504;28;20279;-59
2024/01/24 05:19:42;;;;;;;0.50;0.30;;;;;;;;;;5012234;28;20205;-59
2024/01/24 05:22:14;;;;;;;0.50;0.50;;;;;;;;;;5013108;28;20295;-59
2024/01/24 05:24:44;;;;;;;0.27;0.27;;;;;;;;;;5013401;28;20205;-59
2024/01/24 05:27:13;;;;;;;0.70;0.70;;;;;;;;;;5009645;28;20225;-59
2024/01/24 05:29:41;;;;;;;0.30;0.30;;;;;;;;;;5015622;28;20203;-58
2024/01/24 05:32:08;;;;;;;0.30;0.17;;;;;;;;;;5014489;28;20603;-58
2024/01/24 05:34:37;;;;;;;0.20;0.20;;;;;;;;;;4999330;28;20205;-59
2024/01/24 05:37:04;;;;;;;0.83;0.20;;;;;;;;;;5005112;28;20272;-58
2024/01/24 05:39:31;;;;;;;0.40;0.20;;;;;;;;;;5011609;28;20209;-58
2024/01/24 05:41:59;;;;;;;0.20;0.20;;;;;;;;;;5008503;28;20221;-59
2024/01/24 05:44:25;;;;;;;1.03;0.73;;;;;;;;;;5017839;28;20290;-59
2024/01/24 05:46:52;;;;;;;0.80;0.60;;;;;;;;;;5007431;28;20217;-59
2024/01/24 05:49:20;;;;;;;0.67;0.37;;;;;;;;;;5012616;28;20252;-58
2024/01/24 05:51:48;;;;;;;0.50;0.40;;;;;;;;;;5016105;28;20196;-58
2024/01/24 05:54:15;;;;;;;1.63;0.50;;;;;;;;;;5006755;28;20669;-58
2024/01/24 05:56:43;;;;;;;0.50;0.33;;;;;;;;;;5009094;28;20217;-58
2024/01/24 05:59:10;;;;;;;0.63;0.40;;;;;;;;;;5009657;28;20295;-59
2024/01/24 06:01:37;;;;;;;0.40;0.40;;;;;;;;;;5011563;28;20225;-58
2024/01/24 06:04:05;;;;;;;1.57;0.30;;;;;;;;;;5012730;28;20202;-58
2024/01/24 06:06:32;;;;;;;0.67;0.30;;;;;;;;;;5009758;28;20257;-58
2024/01/24 06:09:00;;;;;;;0.97;0.27;;;;;;;;;;5011712;28;20213;-58
2024/01/24 06:11:28;;;;;;;1.37;0.20;;;;;;;;;;5003530;28;20213;-59
2024/01/24 06:13:55;;;;;;;1.50;0.50;;;;;;;;;;5012508;28;20210;-58
2024/01/24 06:16:22;;;;;;;0.40;0.40;;;;;;;;;;5012396;28;20205;-59
2024/01/24 06:18:49;;;;;;;1.67;0.60;;;;;;;;;;5012293;28;20292;-58
2024/01/24 06:21:17;;;;;;;6.07;1.47;;;;;;;;;;5010068;28;20267;-59
2024/01/24 06:23:44;;;;;;;1.50;0.57;;;;;;;;;;5004754;28;20238;-58
2024/01/24 06:26:13;;;;;;;2.00;0.70;;;;;;;;;;5016801;28;20261;-58
2024/01/24 06:28:41;;;;;;;1.53;0.90;;;;;;;;;;5003596;28;20244;-59
2024/01/24 06:31:08;;;;;;;3.93;2.57;;;;;;;;;;5011514;28;20283;-58
2024/01/24 06:33:35;;;;;;;2.87;1.00;;;;;;;;;;5009853;28;20200;-58
2024/01/24 06:36:02;;;;;;;3.67;1.50;;;;;;;;;;5011943;28;20205;-59
2024/01/24 06:38:30;;;;;;;2.63;1.67;;;;;;;;;;5007377;28;20226;-58
2024/01/24 06:40:57;;;;;;;1.20;1.10;;;;;;;;;;5005834;28;20208;-59
2024/01/24 06:43:26;;;;;;;0.73;0.73;;;;;;;;;;4994487;28;20252;-59
2024/01/24 06:45:53;;;;;;;0.97;0.97;;;;;;;;;;5015054;28;20221;-59
2024/01/24 06:48:21;;;;;;;1.57;0.97;;;;;;;;;;5015705;28;20249;-59
2024/01/24 06:50:48;;;;;;;2.67;1.00;;;;;;;;;;5016161;28;20288;-59
2024/01/24 06:53:15;;;;;;;3.83;2.23;;;;;;;;;;5011364;28;20201;-58
2024/01/24 06:55:44;;;;;;;1.33;0.90;;;;;;;;;;5007163;28;20201;-59
2024/01/24 06:58:11;;;;;;;1.77;0.77;;;;;;;;;;5003440;28;20260;-59
2024/01/24 07:00:39;;;;;;;2.80;1.50;;;;;;;;;;5006054;28;20213;-59
2024/01/24 07:03:07;;;;;;;3.07;1.60;;;;;;;;;;5009335;28;20224;-58
2024/01/24 07:05:34;;;;;;;0.90;0.90;;;;;;;;;;5003706;28;20268;-58
2024/01/24 07:08:03;;;;;;;2.27;1.33;;;;;;;;;;4998590;28;20251;-58
2024/01/24 07:10:30;;;;;;;2.13;0.83;;;;;;;;;;4999516;28;20216;-59
2024/01/24 07:12:57;;;;;;;1.60;0.83;;;;;;;;;;5002088;28;20197;-59
2024/01/24 07:15:25;;;;;;;1.57;0.90;;;;;;;;;;5000501;28;20905;-58
2024/01/24 07:17:55;;;;;;;1.50;1.40;;;;;;;;;;4999128;28;20226;-58
2024/01/24 07:20:23;;;;;;;2.00;0.73;;;;;;;;;;5004596;28;20229;-58
2024/01/24 07:22:50;;;;;;;0.85;0.80;;;;;;;;;;4997346;28;20452;-58
2024/01/24 07:25:19;;;;;;;3.47;0.60;;;;;;;;;;5000170;28;20212;-67
2024/01/24 07:27:47;;;;;;;0.70;0.30;;;;;;;;;;5011355;28;20228;-64
2024/01/24 07:30:15;;;;;;;0.63;0.57;;;;;;;;;;5008125;28;20253;-62
2024/01/24 07:32:42;;;;;;;0.93;0.83;;;;;;;;;;5004394;28;20876;-63
2024/01/24 07:35:11;;;;;;;1.57;0.70;;;;;;;;;;5010932;28;20213;-65
2024/01/24 07:37:39;;;;;;;2.93;0.50;;;;;;;;;;5003836;28;20225;-63
2024/01/24 07:40:07;;;;;;;1.13;0.83;;;;;;;;;;5011625;28;20205;-66
2024/01/24 07:42:34;;;;;;;0.50;0.50;;;;;;;;;;5008607;28;20221;-64
2024/01/24 07:45:01;;;;;;;1.67;0.70;;;;;;;;;;5002003;28;20289;-64
2024/01/24 07:47:29;;;;;;;2.03;0.60;;;;;;;;;;5010386;28;20228;-63
2024/01/24 07:49:56;;;;;;;1.13;0.73;;;;;;;;;;5011530;28;20205;-63
2024/01/24 07:52:25;;;;;;;1.07;0.90;;;;;;;;;;5003314;28;20225;-65
2024/01/24 07:54:52;;;;;;;0.87;0.70;;;;;;;;;;4997941;28;20205;-65
2024/01/24 07:57:20;;;;;;;0.63;0.63;;;;;;;;;;5016798;28;20229;-66
2024/01/24 07:59:47;;;;;;;0.73;0.70;;;;;;;;;;5019968;28;20231;-66
2024/01/24 08:02:18;;;;;;;4.83;0.90;;;;;;;;;;5012109;28;20221;-66
2024/01/24 08:04:45;;;;;;;3.57;1.53;;;;;;;;;;5016265;28;20207;-66
2024/01/24 08:07:14;;;;;;;0.60;0.60;;;;;;;;;;5021890;28;20327;-67
2024/01/24 08:09:42;;;;;;;10.47;8.53;;;;;;;;;;5013625;28;20201;-65
2024/01/24 08:12:14;;;;;;;7.47;5.97;;;;;;;;;;5018067;28;20212;-66
2024/01/24 08:14:41;;;;;;;5.47;4.70;;;;;;;;;;5014562;28;20248;-65
2024/01/24 08:17:10;;;;;;;5.03;4.40;;;;;;;;;;5003233;28;20222;-63
2024/01/24 08:19:38;;;;;;;4.67;4.20;;;;;;;;;;5014359;28;20209;-63
2024/01/24 08:22:05;;;;;;;7.47;5.13;;;;;;;;;;5017118;28;20197;-64
2024/01/24 08:24:33;;;;;;;4.57;3.00;;;;;;;;;;5017882;28;20257;-64
2024/01/24 08:27:02;;;;;;;3.53;2.50;;;;;;;;;;5019781;28;20275;-64
2024/01/24 08:29:29;;;;;;;7.27;2.30;;;;;;;;;;5022169;28;20202;-64
2024/01/24 08:31:57;;;;;;;5.80;2.67;;;;;;;;;;5022288;28;20196;-67
2024/01/24 08:34:25;;;;;;;1.63;1.53;;;;;;;;;;5018297;28;20192;-62
2024/01/24 08:36:52;;;;;;;7.13;2.67;;;;;;;;;;5010082;28;20236;-63
2024/01/24 08:39:20;;;;;;;5.70;2.23;;;;;;;;;;5011978;28;20236;-59
2024/01/24 08:41:48;;;;;;;4.43;1.50;;;;;;;;;;5009177;28;20287;-59
2024/01/24 08:44:16;;;;;;;2.93;2.10;;;;;;;;;;5021595;28;20220;-62
2024/01/24 08:46:44;;;;;;;4.23;2.70;;;;;;;;;;4999696;28;20291;-58
2024/01/24 08:49:12;;;;;;;6.93;3.07;;;7.00;99.90;;;;;;5000122;28;20217;-59
2024/01/24 08:51:40;;;;;;;4.60;2.27;;;;;;;;;;5002345;28;20212;-59
2024/01/24 08:54:08;;;;;;;3.67;2.33;;;;;;;;;;5002538;28;20233;-58
2024/01/24 08:56:35;;;;;;;3.20;2.10;;;;;;;;;;4994654;28;20217;-59
2024/01/24 08:59:03;;;;;;;2.20;1.63;;;;;;;;;;5007616;28;20209;-59
2024/01/24 09:01:31;;;;;;;2.87;2.67;;;;;;;;;;5003597;28;20613;-58
2024/01/24 09:03:59;;;;;;;2.47;1.47;;;;;;;;;;5004497;28;20222;-59
2024/01/24 09:06:26;;;;;;;2.87;1.73;;;;;;;;;;5005793;28;20207;-59
2024/01/24 09:08:54;;;;;;;1.73;1.63;;;;;;;;;;5005341;28;20620;-67
2024/01/24 09:11:21;;;;;;;2.80;1.50;;;;;;;;;;4999696;28;20631;-58
2024/01/24 09:13:49;;;;;;;1.03;1.03;;;;;;;;;;5004109;28;20199;-58
2024/01/24 09:16:16;;;;;;;1.83;1.27;;;7.20;99.90;;;;;;5005619;28;20213;-59
2024/01/24 09:18:45;;;;;;;0.97;0.97;;;7.20;99.90;;;;;;5005589;28;20198;-59
2024/01/24 09:21:12;;;;;;;3.80;2.03;;;7.40;99.90;;;;;;4993521;28;20209;-59
2024/01/24 09:23:39;;;;;;;5.87;4.37;;;7.40;99.90;;;;;;5004193;28;20271;-60
2024/01/24 09:26:06;;;;;;;5.60;3.50;;;7.60;99.90;;;;;;5014512;28;20206;-59
2024/01/24 09:28:33;;;;;;;1.93;1.50;;;7.70;99.90;;;;;;5012665;28;20232;-60
2024/01/24 09:31:00;;;;;;;2.07;1.83;;;7.70;99.90;;;;;;5012370;28;20715;-64
2024/01/24 09:33:27;;;;;;;5.87;2.00;;;7.80;99.90;;;;;;5010371;28;20204;-65
2024/01/24 09:35:56;;;;;;;1.20;1.03;;;7.80;99.90;;;;;;5012255;28;20209;-64
2024/01/24 09:38:23;;;;;;;2.57;1.10;;;7.70;99.90;;;;;;5013194;28;20692;-65
2024/01/24 09:40:50;;;;;;;0.90;0.80;;;7.80;99.90;;;;;;5012755;28;20219;-64
2024/01/24 09:43:21;;;;;;;1.10;1.10;;;7.80;99.90;;;;;;5012023;28;20644;-63
2024/01/24 09:45:50;;;;;;;7.30;5.20;;;7.70;99.90;;;;;;5013184;28;20210;-63
2024/01/24 09:48:17;;;;;;;2.47;2.27;;;7.70;99.90;;;;;;5012594;28;20758;-63
2024/01/24 09:50:45;;;;;;;1.57;0.93;;;7.70;99.90;;;;;;5010139;28;20232;-64
2024/01/24 09:53:19;;;;;;;3.50;1.13;;;7.70;99.90;;;;;;5004146;28;20255;-64
2024/01/24 09:55:46;;;;;;;1.17;0.77;;;7.80;99.90;;;;;;5005677;28;20196;-63
2024/01/24 09:58:13;;;;;;;1.77;0.83;;;7.90;99.90;;;;;;5012661;28;20709;-63
2024/01/24 10:00:41;;;;;;;3.17;2.03;;;8.00;99.90;;;;;;4999797;28;20663;-63
2024/01/24 10:03:08;;;;;;;4.33;1.33;;;8.10;99.90;;;;;;5010559;28;20221;-63
2024/01/24 10:05:37;;;;;;;3.87;1.70;;;8.10;99.90;;;;;;5011269;28;20735;-64
2024/01/24 10:08:05;;;;;;;2.17;1.97;;;8.60;99.90;;;;;;5000383;28;20297;-65
2024/01/24 10:10:33;;;;;;;3.23;1.80;;;8.20;99.90;;;;;;5012488;28;20209;-65
2024/01/24 10:13:03;;;;;;;6.07;2.23;;;8.20;99.90;;;;;;5010694;28;20204;-59
2024/01/24 10:15:31;;;;;;;6.30;1.40;;;;;;;;;;5011053;28;20217;-59
2024/01/24 10:17:58;;;;;;;1.33;0.70;;;;;;;;;;5011290;28;20618;-59
2024/01/24 10:20:26;;;;;;;2.67;0.60;;;;;;;;;;5012695;28;20202;-60
2024/01/24 10:22:55;;;;;;;0.70;0.70;;;;;;;;;;5008026;28;20272;-59
2024/01/24 10:25:23;;;;;;;1.07;0.77;;;9.00;99.90;;;;;;5009266;28;20209;-60
2024/01/24 10:27:51;;;;;;;1.73;0.90;;;9.00;99.90;;;;;;5011073;28;20297;-59
2024/01/24 10:30:19;;;;;;;1.37;1.23;;;;;;;;;;5012552;28;20212;-59
2024/01/24 10:32:47;;;;;;;4.57;0.83;;;;;;;;;;5011308;28;20201;-59
2024/01/24 10:35:15;;;;;;;1.40;0.90;;;;;;;;;;5011761;28;20286;-59
2024/01/24 10:37:43;;;;;;;1.50;1.40;;;;;;;;;;5002116;28;20225;-60
2024/01/24 10:40:14;;;;;;;1.60;1.50;;;;;;;;;;5008270;28;20276;-59
2024/01/24 10:42:42;;;;;;;1.97;1.00;;;;;;;;;;5009353;28;20209;-60
2024/01/24 10:45:12;;;;;;;3.73;1.87;;;9.40;99.90;;;;;;5012071;28;20264;-59
2024/01/24 10:47:40;;;;;;;3.27;1.43;;;9.50;99.90;;;;;;5011891;28;20348;-59
2024/01/24 10:50:09;;;;;;;2.20;1.47;;;9.40;99.90;;;;;;5012482;28;20678;-59
2024/01/24 10:52:37;;;;;;;2.03;1.27;;;;;;;;;;5010936;28;20663;-59
2024/01/24 10:55:06;;;;;;;1.43;1.30;;;;;;;;;;5010916;28;20209;-60
2024/01/24 10:57:34;;;;;;;1.63;1.53;;;;;;;;;;5010981;28;20224;-60
2024/01/24 11:00:04;;;;;;;3.33;1.70;;;;;;;;;;5006802;28;20691;-60
2024/01/24 11:02:33;;;;;;;1.33;1.23;;;;;;;;;;5005445;28;20267;-59
2024/01/24 11:05:03;;;;;;;1.30;0.97;;;;;;;;;;5005830;28;20228;-60
2024/01/24 11:07:32;;;;;;;1.97;1.87;;;;;;;;;;5011660;28;20248;-60
2024/01/24 11:10:04;;;;;;;2.70;1.80;;;;;;;;;;5006358;28;20260;-60
2024/01/24 11:12:32;;;;;;;4.87;2.83;;;;;;;;;;5011403;28;20621;-60
2024/01/24 11:15:05;;;;;;;2.03;1.63;;;;;;;;;;5004158;28;20208;-59
2024/01/24 11:17:35;;;;;;;8.63;4.93;;;;;;;;;;5007669;28;20226;-59
2024/01/24 11:20:05;;;;;;;8.88;4.70;;;;;;;;;;5008591;28;20443;-63
2024/01/24 11:22:33;;;;;;;4.43;2.87;;;;;;;;;;5009444;28;20566;-67
2024/01/24 11:25:00;;;;;;;2.97;0.80;;;;;;;;;;5011110;28;20222;-66
2024/01/24 11:27:32;;;;;;;3.77;1.17;;;;;;;;;;5017582;28;20292;-59
2024/01/24 11:30:01;;;;;;;7.70;1.07;;;;;;;;;;4999469;28;20225;-59
2024/01/24 11:32:47;;;;;;;0.97;0.67;;;;;;;;;;5008515;28;20236;-59
2024/01/24 11:35:28;;;;;;;0.40;0.37;;;;;;;;;;5011367;28;20209;-59
2024/01/24 11:37:55;;;;;;;0.20;0.20;;;;;;;;;;5005236;28;20232;-59
2024/01/24 11:40:23;;;;;;;0.30;0.30;;;;;;;;;;5011286;28;20271;-59
2024/01/24 11:42:54;;;;;;;1.23;0.40;;;;;;;;;;5010040;28;20282;-59
2024/01/24 11:45:23;;;;;;;11.33;1.37;;;;;;;;;;4999239;28;20230;-59
2024/01/24 11:47:51;;;;;;;7.30;1.13;;;;;;;;;;5010361;28;20302;-59
2024/01/24 11:50:18;;;;;;;1.20;0.40;;;11.50;99.90;;;;;;5010209;28;20211;-59
2024/01/24 11:52:47;;;;;;;5.43;0.70;;;11.60;99.90;;;;;;5014042;28;20207;-63
2024/01/24 11:55:14;;;;;;;0.60;0.30;;;11.60;99.90;;;;;;5015255;28;20205;-68
2024/01/24 11:57:42;;;;;;;0.97;0.20;;;;;;;;;;5006979;28;20218;-68
2024/01/24 12:00:14;;;;;;;2.63;0.20;;;;;;;;;;5013854;28;20210;-66
2024/01/24 12:02:41;;;;;;;0.20;0.20;;;;;;;;;;5011482;28;20662;-65
2024/01/24 12:05:09;;;;;;;0.40;0.10;;;;;;;;;;5014017;28;20230;-64
2024/01/24 12:07:36;;;;;;;0.20;0.20;;;;;;;;;;5014617;28;20352;-62
2024/01/24 12:10:07;;;;;;;0.93;0.10;;;;;;;;;;5014715;28;20273;-62
2024/01/24 12:12:35;;;;;;;0.20;0.20;;;;;;;;;;5014052;28;20229;-62
2024/01/24 12:15:02;;;;;;;0.27;0.20;;;;;;;;;;5014689;28;20261;-63
2024/01/24 12:17:33;;;;;;;0.10;0.10;;;;;;;;;;5014034;28;20229;-63
2024/01/24 12:20:00;;;;;;;0.37;0.30;;;;;;;;;;5008893;28;20204;-63
2024/01/24 12:22:28;;;;;;;0.10;0.10;;;;;;;;;;5010862;28;20207;-62
2024/01/24 12:24:55;;;;;;;2.93;0.13;;;;;;;;;;5011093;28;20238;-63
2024/01/24 12:27:24;;;;;;;0.13;0.13;;;;;;;;;;5011803;28;20266;-64
2024/01/24 12:29:51;;;;;;;0.77;0.17;;;;;;;;;;5009514;28;20205;-65
2024/01/24 12:32:22;;;;;;;0.33;0.33;;;13.50;99.90;;;;;;5019832;28;20205;-67
2024/01/24 12:34:49;;;;;;;0.40;0.40;;;;;;;;;;5007628;28;20260;-66
2024/01/24 12:37:21;;;;;;;0.10;0.10;;;;;;;;;;5014426;28;20233;-64
2024/01/24 12:39:52;;;;;;;0.30;0.20;;;;;;;;;;5017293;28;20289;-64
2024/01/24 12:42:19;;;;;;;1.53;0.37;;;;;;;;;;5009751;28;20290;-63
2024/01/24 12:44:52;;;;;;;0.20;0.20;;;;;;;;;;5012692;28;20234;-64
2024/01/24 12:47:19;;;;;;;0.50;0.10;;;;;;;;;;5014176;28;20227;-64
2024/01/24 12:49:46;;;;;;;0.10;0.10;;;;;;;;;;5011664;28;20211;-65
2024/01/24 12:52:14;;;;;;;0.67;0.13;;;;;;;;;;5013292;28;20258;-65
2024/01/24 12:54:41;;;;;;;0.30;0.30;;;;;;;;;;5013837;28;20622;-64
2024/01/24 12:57:08;;;;;;;0.60;0.23;;;;;;;;;;5012516;28;20280;-63
2024/01/24 12:59:35;;;;;;;0.70;0.30;;;;;;;;;;5013800;28;20261;-65
2024/01/24 13:02:04;;;;;;;0.30;0.30;;;;;;;;;;5013217;28;20200;-65
2024/01/24 13:04:32;;;;;;;0.20;0.20;;;;;;;;;;5013651;28;20223;-64
2024/01/24 13:07:00;;;;;;;0.20;0.10;;;;;;;;;;5012885;28;20235;-63
2024/01/24 13:09:27;;;;;;;2.17;0.10;;;;;;;;;;5018537;28;20252;-64
2024/01/24 13:11:54;;;;;;;0.27;0.13;;;;;;;;;;5000115;28;20297;-65
2024/01/24 13:14:22;;;;;;;0.10;0.10;;;;;;;;;;5020796;28;20251;-65
2024/01/24 13:16:49;;;;;;;0.20;0.20;;;;;;;;;;5002069;28;20294;-66
2024/01/24 13:19:17;;;;;;;0.17;0.17;;;;;;;;;;5009960;28;20819;-67
2024/01/24 13:21:45;;;;;;;0.33;0.30;;;;;;;;;;5004961;28;20257;-64
2024/01/24 13:24:12;;;;;;;0.77;0.30;;;;;;;;;;5006209;28;20227;-62
2024/01/24 13:26:39;;;;;;;0.50;0.10;;;;;;;;;;5016542;28;20629;-64
2024/01/24 13:29:06;;;;;;;0.30;0.20;;;;;;;;;;5005279;28;20218;-65
2024/01/24 13:31:34;;;;;;;1.00;0.20;;;14.00;99.90;;;;;;5010975;28;20274;-64
2024/01/24 13:34:01;;;;;;;0.30;0.30;;;14.00;99.90;;;;;;5013125;28;20200;-63
2024/01/24 13:36:29;;;;;;;3.23;0.20;;;13.90;99.90;;;;;;5012983;28;20211;-64
2024/01/24 13:38:56;;;;;;;0.20;0.20;;;13.90;99.90;;;;;;5012463;28;20265;-63
2024/01/24 13:41:24;;;;;;;0.53;0.20;;;;;;;;;;5012401;28;20271;-64
2024/01/24 13:43:52;;;;;;;0.10;0.10;;;;;;;;;;5012906;28;20250;-61
2024/01/24 13:46:19;;;;;;;0.20;0.20;;;;;;;;;;5012522;28;20238;-61
2024/01/24 13:48:46;;;;;;;0.37;0.33;;;;;;;;;;5011872;28;20451;-66
2024/01/24 13:51:14;;;;;;;0.20;0.20;;;;;;;;;;5012035;28;20199;-63
2024/01/24 13:53:43;;;;;;;3.17;0.20;;;;;;;;;;5012481;28;20195;-64
2024/01/24 13:56:10;;;;;;;0.30;0.20;;;;;;;;;;5006143;28;20681;-63
2024/01/24 13:58:37;;;;;;;0.23;0.23;;;;;;;;;;5012495;28;20261;-63
2024/01/24 14:01:04;;;;;;;1.13;0.40;;;;;;;;;;5012080;28;20207;-66
2024/01/24 14:03:33;;;;;;;0.20;0.20;;;;;;;;;;5012390;28;20203;-65
2024/01/24 14:06:00;;;;;;;0.10;0.10;;;;;;;;;;5009096;28;20225;-66
2024/01/24 14:08:27;;;;;;;0.63;0.43;;;;;;;;;;5011873;28;20241;-66
2024/01/24 14:10:56;;;;;;;0.47;0.43;;;;;;;;;;5000250;28;20208;-64